Time;durP1;ratioP1;P1;durP2;ratioP2;P2;SDS_P1;SDS_P2;PMS_P1;PMS_P2;Temp;Humidity;BMP_temperature;BMP_pressure;BME280_temperature;BME280_humidity;BME280_pressure;Samples;Min_cycle;Max_cycle;Signal;HPM_P1;HPM_P2
2021/10/19 00:04:15;;;;;;;6.30;5.10;;;22.30;54.20;;;;;;5080615;28;20185;-82
2021/10/19 00:10:08;;;;;;;6.77;6.10;;;22.30;54.20;;;;;;5069263;28;20182;-82
2021/10/19 00:12:34;;;;;;;7.20;5.90;;;22.20;54.20;;;;;;5076015;28;20417;-82
2021/10/19 00:15:00;;;;;;;6.73;6.03;;;22.20;54.20;;;;;;5050476;28;20472;-82
2021/10/19 00:17:26;;;;;;;7.80;5.73;;;22.20;54.20;;;;;;5086322;28;20421;-82
2021/10/19 00:19:52;;;;;;;7.20;6.07;;;22.30;54.30;;;;;;5086879;28;20417;-82
2021/10/19 00:22:21;;;;;;;6.90;6.20;;;22.30;54.20;;;;;;5074160;28;20186;-82
2021/10/19 00:25:17;;;;;;;7.03;5.87;;;22.30;54.30;;;;;;5058720;28;20182;-82
2021/10/19 00:27:44;;;;;;;8.57;5.50;;;22.30;54.20;;;;;;4985430;28;20965;-82
2021/10/19 00:30:13;;;;;;;6.80;5.67;;;22.20;54.20;;;;;;4987734;28;20426;-82
2021/10/19 00:32:40;;;;;;;7.63;5.87;;;22.30;54.20;;;;;;4970830;28;20432;-82
2021/10/19 00:35:06;;;;;;;6.60;5.73;;;22.20;54.20;;;;;;4971575;28;20479;-82
2021/10/19 00:37:33;;;;;;;8.80;5.80;;;22.20;54.20;;;;;;4971709;28;20861;-82
2021/10/19 00:39:58;;;;;;;9.53;6.80;;;22.20;54.20;;;;;;4987963;28;20441;-82
2021/10/19 00:42:24;;;;;;;6.37;5.20;;;22.20;54.10;;;;;;4971986;28;20433;-82
2021/10/19 00:44:50;;;;;;;8.97;6.67;;;22.30;54.20;;;;;;4971853;28;20264;-82
2021/10/19 00:47:20;;;;;;;6.53;5.17;;;22.20;54.20;;;;;;4988288;28;20196;-82
2021/10/19 00:49:48;;;;;;;7.60;6.13;;;22.20;54.20;;;;;;4988121;28;20201;-82
2021/10/19 00:52:15;;;;;;;6.70;5.40;;;22.20;54.20;;;;;;4971048;28;20481;-82
2021/10/19 00:54:41;;;;;;;8.03;5.83;;;22.20;54.20;;;;;;4987932;28;20457;-82
2021/10/19 00:57:07;;;;;;;8.10;5.43;;;22.20;54.20;;;;;;4974118;28;20497;-82
2021/10/19 00:59:36;;;;;;;7.90;6.50;;;22.20;54.20;;;;;;4973929;28;20413;-82
2021/10/19 01:02:04;;;;;;;7.07;5.40;;;22.20;54.20;;;;;;4974495;28;20476;-81
2021/10/19 01:04:30;;;;;;;6.90;5.67;;;22.20;54.20;;;;;;5027811;28;20433;-81
2021/10/19 01:06:56;;;;;;;6.97;5.57;;;22.20;54.20;;;;;;5048757;28;20434;-81
2021/10/19 01:09:22;;;;;;;6.20;5.53;;;22.20;54.20;;;;;;5087694;28;20186;-81
2021/10/19 01:11:49;;;;;;;7.63;6.20;;;22.20;54.20;;;;;;5073162;28;20182;-81
2021/10/19 01:14:15;;;;;;;6.10;5.23;;;22.20;54.20;;;;;;5083421;28;20210;-81
2021/10/19 01:16:41;;;;;;;7.07;5.43;;;22.20;54.20;;;;;;5107873;28;20447;-81
2021/10/19 01:19:07;;;;;;;7.53;5.73;;;22.20;54.20;;;;;;5072556;28;20178;-81
2021/10/19 01:21:33;;;;;;;7.70;5.87;;;22.20;54.20;;;;;;5091239;28;20231;-81
2021/10/19 01:23:59;;;;;;;7.33;5.60;;;22.20;54.20;;;;;;5074755;28;20232;-81
2021/10/19 01:26:24;;;;;;;7.60;5.50;;;22.20;54.20;;;;;;5107973;28;20238;-81
2021/10/19 01:28:50;;;;;;;6.03;5.43;;;22.20;54.20;;;;;;5091793;28;20186;-81
2021/10/19 01:31:16;;;;;;;7.57;6.40;;;22.20;54.20;;;;;;5068232;28;20187;-81
2021/10/19 01:33:42;;;;;;;6.30;5.57;;;22.20;54.20;;;;;;5066413;28;20182;-81
2021/10/19 01:36:09;;;;;;;7.57;6.07;;;22.20;54.20;;;;;;5064430;28;20223;-81
2021/10/19 01:38:38;;;;;;;6.90;6.20;;;22.20;54.20;;;;;;5084780;28;20197;-81
2021/10/19 01:41:04;;;;;;;7.50;6.00;;;22.20;54.20;;;;;;5064279;28;20445;-81
2021/10/19 01:43:31;;;;;;;6.03;5.50;;;22.20;54.20;;;;;;5081524;28;20441;-81
2021/10/19 01:46:01;;;;;;;6.87;5.40;;;22.20;54.20;;;;;;5051359;28;20462;-82
2021/10/19 01:48:31;;;;;;;5.43;4.93;;;22.20;54.20;;;;;;5081498;28;20796;-81
2021/10/19 01:50:57;;;;;;;6.60;5.97;;;22.20;54.20;;;;;;5063138;28;20442;-81
2021/10/19 01:53:23;;;;;;;6.90;5.50;;;22.20;54.20;;;;;;5067208;28;20910;-81
2021/10/19 01:55:50;;;;;;;7.50;5.40;;;22.20;54.20;;;;;;5090186;28;20202;-81
2021/10/19 01:58:21;;;;;;;6.43;5.83;;;22.10;54.10;;;;;;5069588;28;20421;-81
2021/10/19 02:00:48;;;;;;;6.77;5.13;;;22.20;54.20;;;;;;5072670;28;20421;-81
2021/10/19 02:03:18;;;;;;;6.17;5.57;;;22.10;54.10;;;;;;5070121;28;20455;-81
2021/10/19 02:05:49;;;;;;;6.90;5.97;;;22.20;54.20;;;;;;5100836;28;20433;-81
2021/10/19 02:08:15;;;;;;;5.63;5.13;;;22.20;54.20;;;;;;5068810;28;20467;-81
2021/10/19 02:10:41;;;;;;;6.37;5.37;;;22.10;54.10;;;;;;5081684;28;20926;-81
2021/10/19 02:13:08;;;;;;;6.47;5.37;;;22.10;54.10;;;;;;5065187;28;20418;-81
2021/10/19 02:15:34;;;;;;;5.37;4.87;;;22.10;54.10;;;;;;5088730;28;20202;-81
2021/10/19 02:18:01;;;;;;;7.60;5.37;;;22.10;54.10;;;;;;5073452;28;20451;-81
2021/10/19 02:20:28;;;;;;;6.10;5.50;;;22.10;54.10;;;;;;5071885;28;20494;-81
2021/10/19 02:22:54;;;;;;;6.27;5.63;;;22.10;54.10;;;;;;5091169;28;20500;-81
2021/10/19 02:26:08;;;;;;;5.77;4.80;;;22.10;54.10;;;;;;5073489;28;21492;-81
2021/10/19 02:28:33;;;;;;;5.93;5.33;;;22.20;54.10;;;;;;5069430;28;20185;-81
2021/10/19 02:31:00;;;;;;;6.73;5.20;;;22.10;54.10;;;;;;5079144;28;20421;-81
2021/10/19 02:33:29;;;;;;;8.70;5.30;;;22.10;54.10;;;;;;5045551;28;20221;-81
2021/10/19 02:35:55;;;;;;;6.53;5.93;;;22.10;54.10;;;;;;5081745;28;20456;-81
2021/10/19 02:38:21;;;;;;;5.93;5.33;;;22.10;54.20;;;;;;5065375;28;20564;-81
2021/10/19 02:40:52;;;;;;;8.30;5.73;;;22.10;54.10;;;;;;5074364;28;20187;-82
2021/10/19 02:43:18;;;;;;;6.30;5.70;;;22.10;54.10;;;;;;5071567;28;20421;-81
2021/10/19 02:45:43;;;;;;;5.60;5.10;;;22.10;54.10;;;;;;5072573;28;20413;-81
2021/10/19 02:48:09;;;;;;;6.90;5.23;;;22.10;54.10;;;;;;5079647;28;20178;-81
2021/10/19 02:50:36;;;;;;;6.30;5.50;;;22.10;54.10;;;;;;5089614;28;20195;-82
2021/10/19 02:53:03;;;;;;;5.73;4.80;;;22.10;54.10;;;;;;5070717;28;20185;-82
2021/10/19 02:55:28;;;;;;;6.00;5.23;;;22.10;54.10;;;;;;5068671;28;20472;-82
2021/10/19 02:57:54;;;;;;;5.83;5.23;;;22.10;54.10;;;;;;5073915;28;20413;-81
2021/10/19 03:00:20;;;;;;;6.07;5.23;;;22.10;54.10;;;;;;5080595;28;20182;-82
2021/10/19 03:02:46;;;;;;;7.20;5.90;;;22.10;54.10;;;;;;5060355;28;20185;-82
2021/10/19 03:05:15;;;;;;;5.10;4.60;;;22.10;54.10;;;;;;5090470;28;20437;-82
2021/10/19 03:07:41;;;;;;;6.10;5.50;;;22.10;54.10;;;;;;5088684;28;20431;-82
2021/10/19 03:10:08;;;;;;;5.63;5.03;;;22.10;54.10;;;;;;5057227;28;20468;-81
2021/10/19 03:12:33;;;;;;;6.10;5.30;;;22.10;54.10;;;;;;5083242;28;20190;-81
2021/10/19 03:14:59;;;;;;;5.10;4.70;;;22.10;54.10;;;;;;5079023;28;20461;-82
2021/10/19 03:17:25;;;;;;;5.50;4.70;;;22.10;54.10;;;;;;5080448;28;20174;-81
2021/10/19 03:19:50;;;;;;;8.63;6.20;;;22.10;54.00;;;;;;5056657;28;20217;-81
2021/10/19 03:22:19;;;;;;;5.50;4.90;;;22.10;54.00;;;;;;5071936;28;20230;-82
2021/10/19 03:24:44;;;;;;;5.37;4.93;;;22.10;54.00;;;;;;5074321;28;20261;-81
2021/10/19 03:27:10;;;;;;;6.47;5.70;;;22.10;54.00;;;;;;5081544;28;20413;-81
2021/10/19 03:36:41;;;;;;;5.67;4.83;;;22.10;53.90;;;;;;5086257;28;20447;-81
2021/10/19 03:39:07;;;;;;;5.30;4.70;;;22.10;54.00;;;;;;5067799;28;20794;-82
2021/10/19 03:41:32;;;;;;;5.90;5.40;;;22.00;54.00;;;;;;5070255;28;20456;-81
2021/10/19 03:44:01;;;;;;;5.20;4.77;;;22.00;53.90;;;;;;5079937;28;20186;-83
2021/10/19 03:46:26;;;;;;;5.20;4.80;;;22.00;53.90;;;;;;5062932;28;20190;-81
2021/10/19 03:48:52;;;;;;;5.50;5.00;;;22.10;54.00;;;;;;5087869;28;20427;-82
2021/10/19 03:51:17;;;;;;;5.80;4.53;;;22.00;53.90;;;;;;5083642;28;20230;-81
2021/10/19 03:53:43;;;;;;;6.30;5.70;;;22.00;53.90;;;;;;5087861;28;20242;-81
2021/10/19 03:56:09;;;;;;;5.73;5.13;;;22.10;53.90;;;;;;5072495;28;20190;-81
2021/10/19 03:58:35;;;;;;;6.13;5.63;;;22.00;53.80;;;;;;5087114;28;20246;-81
2021/10/19 04:01:01;;;;;;;5.50;5.00;;;22.00;53.80;;;;;;5058431;28;20278;-80
2021/10/19 04:03:26;;;;;;;7.27;6.10;;;22.00;53.80;;;;;;5084667;28;20241;-80
2021/10/19 04:05:53;;;;;;;5.73;5.13;;;22.00;53.80;;;;;;5085295;28;20424;-80
2021/10/19 04:08:19;;;;;;;4.83;4.43;;;22.00;53.80;;;;;;5080418;28;20246;-81
2021/10/19 04:10:44;;;;;;;5.27;4.77;;;22.00;53.80;;;;;;5081486;28;20439;-81
2021/10/19 04:13:10;;;;;;;5.27;4.77;;;22.00;53.80;;;;;;5082811;28;20208;-81
2021/10/19 04:15:44;;;;;;;4.87;4.47;;;22.00;53.80;;;;;;5081725;28;21281;-80
2021/10/19 04:18:10;;;;;;;5.40;4.90;;;22.00;53.80;;;;;;5081464;28;20233;-81
2021/10/19 04:20:35;;;;;;;4.77;4.27;;;22.00;53.80;;;;;;5081896;28;20422;-80
2021/10/19 04:23:01;;;;;;;4.77;4.27;;;22.00;53.80;;;;;;5065520;28;20183;-81
2021/10/19 04:25:27;;;;;;;6.30;5.67;;;22.00;53.80;;;;;;5064276;28;20179;-80
2021/10/19 04:31:15;;;;;;;5.27;4.77;;;22.00;53.70;;;;;;5080546;28;21594;-80
2021/10/19 04:33:41;;;;;;;6.17;5.57;;;22.00;53.80;;;;;;5075530;28;20432;-80
2021/10/19 04:36:07;;;;;;;5.13;4.73;;;22.00;53.80;;;;;;5091685;28;20206;-81
2021/10/19 04:38:34;;;;;;;5.00;4.50;;;22.00;53.80;;;;;;5086721;28;20237;-80
2021/10/19 04:41:00;;;;;;;5.80;5.20;;;22.00;53.70;;;;;;5068157;28;20195;-81
2021/10/19 04:43:26;;;;;;;8.00;5.30;;;22.00;53.70;;;;;;5087866;28;20499;-81
2021/10/19 04:45:53;;;;;;;5.83;5.07;;;22.00;53.60;;;;;;5087126;28;20426;-80
2021/10/19 04:48:20;;;;;;;5.77;5.27;;;22.00;53.60;;;;;;5070895;28;20178;-81
2021/10/19 04:50:47;;;;;;;6.30;5.70;;;22.00;53.60;;;;;;5073550;28;20444;-81
2021/10/19 04:53:12;;;;;;;5.40;4.90;;;22.00;53.60;;;;;;5073033;28;20424;-82
2021/10/19 04:55:38;;;;;;;7.47;6.30;;;22.00;53.60;;;;;;5067795;28;20468;-82
2021/10/19 04:58:04;;;;;;;4.97;4.57;;;22.00;53.50;;;;;;5099433;28;20178;-81
2021/10/19 05:00:30;;;;;;;5.63;5.13;;;22.10;53.60;;;;;;5109302;28;20182;-81
2021/10/19 05:02:57;;;;;;;5.10;4.60;;;22.10;53.60;;;;;;5074243;28;20428;-82
2021/10/19 05:05:23;;;;;;;6.03;5.33;;;22.10;53.60;;;;;;5108537;28;20436;-81
2021/10/19 05:07:49;;;;;;;5.20;4.67;;;22.10;53.60;;;;;;5073104;28;20437;-82
2021/10/19 05:17:50;;;;;;;5.47;4.97;;;22.10;53.50;;;;;;5089600;28;20457;-81
2021/10/19 05:20:15;;;;;;;6.50;4.67;;;22.10;53.50;;;;;;5090881;28;20428;-80
2021/10/19 05:22:41;;;;;;;6.30;5.70;;;22.00;53.50;;;;;;5093651;28;20396;-81
2021/10/19 05:25:07;;;;;;;5.20;4.70;;;22.10;53.50;;;;;;5076224;28;20232;-82
2021/10/19 05:27:33;;;;;;;5.87;5.27;;;22.10;53.50;;;;;;5094182;28;20178;-82
2021/10/19 05:29:59;;;;;;;5.57;4.67;;;22.10;53.50;;;;;;5094184;28;20462;-81
2021/10/19 05:32:39;;;;;;;6.30;5.40;;;22.10;53.50;;;;;;5093889;28;20159;-81
2021/10/19 05:35:05;;;;;;;5.47;4.97;;;22.10;53.40;;;;;;5076631;28;20202;-81
2021/10/19 05:37:31;;;;;;;5.70;5.20;;;22.10;53.40;;;;;;5093916;28;20413;-83
2021/10/19 05:39:57;;;;;;;6.80;5.70;;;22.10;53.40;;;;;;5084948;28;20442;-82
2021/10/19 05:45:52;;;;;;;5.20;4.80;;;22.10;53.30;;;;;;5089586;28;20173;-81
2021/10/19 05:48:18;;;;;;;5.50;4.83;;;22.10;53.30;;;;;;5071792;28;20421;-81
2021/10/19 05:50:44;;;;;;;5.80;5.23;;;22.10;53.30;;;;;;5083365;28;20440;-83
2021/10/19 05:53:10;;;;;;;5.43;4.93;;;22.10;53.40;;;;;;5078495;28;20185;-82
2021/10/19 05:55:37;;;;;;;5.17;4.67;;;22.10;53.30;;;;;;5081096;28;20199;-84
2021/10/19 05:58:04;;;;;;;5.43;4.90;;;22.10;53.30;;;;;;5064981;28;20174;-82
2021/10/19 06:00:36;;;;;;;5.07;4.57;;;22.10;53.30;;;;;;5073409;28;20429;-82
2021/10/19 06:03:03;;;;;;;5.60;5.10;;;22.10;53.30;;;;;;5094108;28;20893;-82
2021/10/19 06:05:28;;;;;;;5.27;4.83;;;22.10;53.30;;;;;;5075901;28;20420;-83
2021/10/19 06:07:54;;;;;;;5.67;4.47;;;22.10;53.30;;;;;;5072130;28;20440;-81
2021/10/19 06:10:21;;;;;;;5.40;4.93;;;22.10;53.30;;;;;;5089435;28;20531;-82
2021/10/19 06:12:50;;;;;;;5.43;4.90;;;22.10;53.30;;;;;;5084300;28;20201;-82
2021/10/19 06:15:16;;;;;;;6.07;5.27;;;22.10;53.30;;;;;;5090595;28;20985;-81
2021/10/19 06:17:42;;;;;;;5.30;4.80;;;22.10;53.30;;;;;;5102809;28;20414;-82
2021/10/19 06:20:09;;;;;;;4.90;4.40;;;22.10;53.30;;;;;;5084241;28;20273;-82
2021/10/19 06:22:34;;;;;;;5.50;5.00;;;22.10;53.30;;;;;;5072628;28;20422;-81
2021/10/19 06:25:00;;;;;;;5.73;5.13;;;22.10;53.30;;;;;;5085886;28;20422;-82
2021/10/19 06:27:26;;;;;;;6.13;5.10;;;22.10;53.30;;;;;;5089302;28;20207;-82
2021/10/19 06:29:51;;;;;;;5.43;4.63;;;22.10;53.20;;;;;;5073572;28;20174;-82
2021/10/19 06:32:17;;;;;;;5.17;4.50;;;22.10;53.30;;;;;;5073485;28;20213;-82
2021/10/19 06:34:43;;;;;;;5.60;4.67;;;22.10;53.20;;;;;;5055570;28;20198;-82
2021/10/19 06:37:09;;;;;;;5.80;5.30;;;22.20;53.30;;;;;;5088700;28;20179;-82
2021/10/19 06:39:34;;;;;;;4.83;4.43;;;22.10;53.20;;;;;;5073396;28;20593;-81
2021/10/19 06:42:00;;;;;;;5.27;4.77;;;22.20;53.30;;;;;;5087445;28;20187;-82
2021/10/19 06:44:26;;;;;;;5.50;4.97;;;22.20;53.30;;;;;;5088974;28;20184;-83
2021/10/19 06:46:52;;;;;;;6.43;4.90;;;22.20;53.30;;;;;;5075420;28;20792;-82
2021/10/19 06:49:25;;;;;;;5.53;4.73;;;22.20;53.30;;;;;;5085104;28;20187;-82
2021/10/19 06:51:50;;;;;;;6.43;5.07;;;22.20;53.30;;;;;;5086348;28;20225;-81
2021/10/19 06:54:16;;;;;;;5.80;5.10;;;22.20;53.30;;;;;;5082766;28;20409;-82
2021/10/19 06:56:42;;;;;;;5.13;4.63;;;22.20;53.30;;;;;;5068011;28;20182;-81
2021/10/19 06:59:08;;;;;;;5.03;4.53;;;22.20;53.30;;;;;;5084469;28;20184;-80
2021/10/19 07:01:33;;;;;;;5.20;4.70;;;22.20;53.30;;;;;;5083484;28;20175;-80
2021/10/19 07:04:01;;;;;;;6.07;4.67;;;22.20;53.30;;;;;;5060919;28;20652;-81
2021/10/19 07:06:27;;;;;;;5.20;4.60;;;22.20;53.30;;;;;;5066001;28;20280;-81
2021/10/19 07:08:53;;;;;;;5.70;5.20;;;22.20;53.30;;;;;;5084245;28;20898;-80
2021/10/19 07:11:20;;;;;;;6.47;5.47;;;22.20;53.30;;;;;;5083983;28;20767;-80
2021/10/19 07:13:46;;;;;;;5.60;5.10;;;22.20;53.30;;;;;;5070143;28;20427;-81
2021/10/19 07:16:13;;;;;;;5.03;4.43;;;22.20;53.30;;;;;;5078910;28;20472;-80
2021/10/19 07:18:38;;;;;;;6.93;5.60;;;22.20;53.30;;;;;;5084208;28;20408;-80
2021/10/19 07:21:04;;;;;;;7.97;5.47;;;22.20;53.30;;;;;;5053536;28;20426;-80
2021/10/19 07:23:29;;;;;;;5.40;4.10;;;22.20;53.30;;;;;;5072970;28;20201;-80
2021/10/19 07:25:55;;;;;;;5.83;5.17;;;22.20;53.30;;;;;;5072617;28;20182;-80
2021/10/19 07:31:43;;;;;;;6.20;4.67;;;22.20;53.30;;;;;;5073263;28;20165;-80
2021/10/19 07:34:10;;;;;;;6.33;4.93;;;22.10;53.20;;;;;;5079338;28;20412;-80
2021/10/19 07:36:36;;;;;;;5.63;4.70;;;22.20;53.30;;;;;;5085046;28;20658;-80
2021/10/19 07:39:02;;;;;;;5.37;4.43;;;22.20;53.30;;;;;;5084004;28;20413;-81
2021/10/19 07:41:31;;;;;;;6.13;4.67;;;22.20;53.30;;;;;;5065992;28;20194;-81
2021/10/19 07:43:57;;;;;;;5.00;4.50;;;22.20;53.30;;;;;;5066122;28;20417;-81
2021/10/19 07:46:23;;;;;;;6.17;4.63;;;22.20;53.30;;;;;;5067240;28;20424;-81
2021/10/19 07:48:48;;;;;;;7.03;5.10;;;22.20;53.30;;;;;;5063643;28;20186;-81
2021/10/19 07:51:14;;;;;;;5.37;4.80;;;22.20;53.30;;;;;;5079369;28;20432;-80
2021/10/19 07:56:44;;;;;;;5.13;4.60;;;22.20;53.40;;;;;;5028908;28;20196;-80
2021/10/19 07:59:10;;;;;;;6.47;4.50;;;22.10;53.20;;;;;;5097049;28;20800;-82
2021/10/19 08:01:41;;;;;;;6.30;4.60;;;22.20;53.30;;;;;;5061493;28;20186;-82
2021/10/19 08:04:09;;;;;;;6.87;4.37;;;22.20;53.30;;;;;;5095143;28;20247;-82
2021/10/19 08:06:37;;;;;;;6.10;4.83;;;22.20;53.30;;;;;;5091561;28;20412;-83
2021/10/19 08:09:03;;;;;;;5.47;4.83;;;22.20;53.30;;;;;;5072343;28;20420;-81
2021/10/19 08:11:29;;;;;;;6.57;5.10;;;22.20;53.30;;;;;;5106056;28;20426;-82
2021/10/19 08:13:56;;;;;;;6.50;4.57;;;22.20;53.30;;;;;;5100029;28;20917;-82
2021/10/19 08:16:23;;;;;;;4.80;4.27;;;22.20;53.30;;;;;;5092016;28;20448;-82
2021/10/19 08:18:52;;;;;;;4.77;4.27;;;22.20;53.30;;;;;;5094242;28;20420;-82
2021/10/19 08:21:19;;;;;;;5.20;4.40;;;22.20;53.30;;;;;;5094591;28;20523;-82
2021/10/19 08:24:16;;;;;;;5.23;4.63;;;22.20;53.30;;;;;;5116069;28;20419;-82
2021/10/19 08:26:44;;;;;;;5.77;5.17;;;22.30;53.30;;;;;;5098255;28;20491;-82
2021/10/19 08:29:12;;;;;;;6.53;5.13;;;22.20;53.30;;;;;;5098072;28;20435;-81
2021/10/19 08:31:40;;;;;;;6.93;4.60;;;22.20;53.30;;;;;;5097825;28;20400;-81
2021/10/19 08:34:05;;;;;;;6.40;4.47;;;22.20;53.30;;;;;;5098556;28;20415;-82
2021/10/19 08:36:31;;;;;;;5.40;4.70;;;22.20;53.30;;;;;;5098629;28;20945;-81
2021/10/19 08:38:57;;;;;;;8.10;4.70;;;22.20;53.30;;;;;;5098139;28;20170;-81
2021/10/19 08:41:27;;;;;;;5.23;4.23;;;22.20;53.30;;;;;;5115696;28;20188;-81
2021/10/19 08:43:52;;;;;;;4.83;4.33;;;22.20;53.30;;;;;;5098071;28;20160;-81
2021/10/19 08:46:18;;;;;;;5.70;4.67;;;22.20;53.30;;;;;;5097780;28;20416;-81
2021/10/19 08:48:44;;;;;;;5.90;4.83;;;22.20;53.30;;;;;;5091808;28;20178;-81
2021/10/19 08:51:11;;;;;;;5.70;4.50;;;22.20;53.30;;;;;;5074370;28;20421;-80
2021/10/19 08:53:42;;;;;;;5.60;4.77;;;22.20;53.30;;;;;;5082545;28;20178;-82
2021/10/19 08:56:08;;;;;;;5.97;4.63;;;22.30;53.40;;;;;;5094255;28;20455;-81
2021/10/19 08:58:40;;;;;;;8.20;3.90;;;22.30;53.40;;;;;;5110863;28;20456;-80
2021/10/19 09:01:13;;;;;;;6.67;4.53;;;22.30;53.40;;;;;;5096003;28;20420;-82
2021/10/19 09:03:50;;;;;;;6.50;4.40;;;22.30;53.40;;;;;;5077898;28;20416;-82
2021/10/19 09:06:17;;;;;;;5.03;4.53;;;22.30;53.40;;;;;;5077369;28;20412;-82
2021/10/19 09:08:48;;;;;;;4.97;4.47;;;22.30;53.40;;;;;;5095187;28;20537;-82
2021/10/19 09:11:15;;;;;;;9.70;4.50;;;22.30;53.40;;;;;;5078405;28;20439;-82
2021/10/19 09:13:54;;;;;;;6.90;4.73;;;22.30;53.40;;;;;;5095456;28;20408;-81
2021/10/19 09:16:35;;;;;;;7.93;4.73;;;22.40;53.40;;;;;;5094596;28;20489;-82
2021/10/19 09:19:01;;;;;;;5.13;4.23;;;22.40;53.40;;;;;;5073543;28;20389;-81
2021/10/19 09:21:30;;;;;;;6.00;4.50;;;22.40;53.50;;;;;;5093992;28;20416;-82
2021/10/19 09:24:16;;;;;;;5.77;4.60;;;22.40;53.40;;;;;;5115243;28;20482;-82
2021/10/19 09:26:59;;;;;;;8.50;4.67;;;22.40;53.40;;;;;;5097257;28;20423;-82
2021/10/19 09:29:30;;;;;;;4.80;3.80;;;22.40;53.50;;;;;;5097295;28;20433;-82
2021/10/19 09:32:00;;;;;;;6.97;4.10;;;22.40;53.50;;;;;;5115051;28;20392;-82
2021/10/19 09:34:31;;;;;;;6.27;4.40;;;22.40;53.50;;;;;;5115730;28;20421;-82
2021/10/19 09:36:58;;;;;;;5.33;4.83;;;22.40;53.50;;;;;;5097906;28;20400;-82
2021/10/19 09:39:38;;;;;;;5.50;4.60;;;22.40;53.50;;;;;;5096715;28;20400;-81
2021/10/19 09:42:25;;;;;;;5.20;3.50;;;22.40;53.50;;;;;;5072240;28;20417;-82
2021/10/19 09:44:59;;;;;;;8.33;4.00;;;22.40;53.40;;;;;;5076845;28;20404;-82
2021/10/19 09:47:39;;;;;;;7.57;4.80;;;22.40;53.50;;;;;;5076886;28;20480;-82
2021/10/19 09:50:09;;;;;;;5.57;3.97;;;22.40;53.50;;;;;;5075878;28;20438;-82
2021/10/19 09:52:39;;;;;;;4.93;4.10;;;22.40;53.50;;;;;;5075520;28;20496;-82
2021/10/19 09:55:10;;;;;;;4.43;3.80;;;22.40;53.50;;;;;;5061652;28;20472;-81
2021/10/19 09:57:38;;;;;;;4.40;3.97;;;22.40;53.40;;;;;;5094406;28;20397;-82
2021/10/19 10:00:07;;;;;;;5.40;4.80;;;22.40;53.40;;;;;;5092821;28;20510;-82
2021/10/19 10:02:37;;;;;;;4.33;3.93;;;22.40;53.40;;;;;;5093158;28;20416;-82
2021/10/19 10:05:06;;;;;;;4.77;4.27;;;22.40;53.40;;;;;;5088002;28;20488;-82
2021/10/19 10:07:35;;;;;;;5.10;4.30;;;22.40;53.40;;;;;;5091633;28;20412;-82
2021/10/19 10:10:02;;;;;;;5.80;3.63;;;22.40;53.30;;;;;;5072118;28;20417;-82
2021/10/19 10:12:32;;;;;;;7.60;4.97;;;22.40;53.30;;;;;;5090943;28;20450;-81
2021/10/19 10:15:00;;;;;;;5.60;4.70;;;22.40;53.30;;;;;;5093689;28;20443;-82
2021/10/19 10:17:28;;;;;;;5.53;4.30;;;22.40;53.30;;;;;;5092933;28;20416;-82
2021/10/19 10:20:08;;;;;;;4.43;4.00;;;22.40;53.30;;;;;;5092827;28;20433;-82
2021/10/19 10:22:43;;;;;;;4.97;4.47;;;22.40;53.30;;;;;;5093150;28;20898;-82
2021/10/19 10:25:17;;;;;;;6.13;4.83;;;22.40;53.30;;;;;;5093243;28;20507;-82
2021/10/19 10:27:43;;;;;;;7.77;4.80;;;22.40;53.30;;;;;;5092780;28;20423;-82
2021/10/19 10:30:23;;;;;;;8.13;4.90;;;22.40;53.30;;;;;;5092556;28;20428;-82
2021/10/19 10:32:50;;;;;;;9.47;5.40;;;22.40;53.30;;;;;;5085964;28;20412;-82
2021/10/19 10:35:21;;;;;;;6.57;5.97;;;22.40;53.30;;;;;;5093678;28;20460;-82
2021/10/19 10:37:52;;;;;;;9.80;6.70;;;22.40;53.30;;;;;;5076549;28;20420;-82
2021/10/19 10:40:32;;;;;;;9.87;6.20;;;22.40;53.30;;;;;;5078803;28;20420;-82
2021/10/19 10:43:19;;;;;;;11.03;6.40;;;22.40;53.20;;;;;;5075790;28;20447;-82
2021/10/19 10:45:46;;;;;;;12.90;7.30;;;22.40;53.30;;;;;;5075580;28;20408;-82
2021/10/19 10:48:14;;;;;;;20.90;9.60;;;22.30;53.20;;;;;;5075687;28;20413;-82
2021/10/19 10:50:41;;;;;;;31.43;17.60;;;22.30;53.20;;;;;;5075531;28;20447;-82
2021/10/19 10:53:14;;;;;;;43.27;24.37;;;22.30;53.20;;;;;;5087598;28;20456;-82
2021/10/19 10:55:49;;;;;;;44.40;23.07;;;22.30;53.20;;;;;;5072609;28;20452;-82
2021/10/19 10:58:23;;;;;;;48.30;26.73;;;22.30;53.20;;;;;;5067197;28;20480;-82
2021/10/19 11:00:49;;;;;;;44.67;25.00;;;22.30;53.20;;;;;;5073984;28;20581;-81
2021/10/19 11:03:18;;;;;;;38.83;23.70;;;22.30;53.20;;;;;;5091834;28;20412;-82
2021/10/19 11:05:54;;;;;;;26.37;14.40;;;22.30;53.20;;;;;;5075153;28;20427;-82
2021/10/19 11:08:33;;;;;;;33.33;18.27;;;22.30;53.20;;;;;;5092583;28;20423;-81
2021/10/19 11:11:15;;;;;;;30.57;17.47;;;22.30;53.30;;;;;;5077517;28;20424;-82
2021/10/19 11:13:58;;;;;;;28.83;17.20;;;22.30;53.30;;;;;;5092074;28;20405;-82
2021/10/19 11:16:32;;;;;;;28.37;15.93;;;22.30;53.30;;;;;;5073969;28;21024;-82
2021/10/19 11:18:59;;;;;;;31.67;17.90;;;22.30;53.30;;;;;;5067932;28;20437;-82
2021/10/19 11:21:25;;;;;;;31.00;19.07;;;22.30;53.40;;;;;;5078190;28;20417;-82
2021/10/19 11:23:51;;;;;;;31.90;19.23;;;22.30;53.40;;;;;;5086485;28;20413;-82
2021/10/19 11:26:18;;;;;;;31.60;19.00;;;22.30;53.40;;;;;;5092457;28;20413;-82
2021/10/19 11:28:44;;;;;;;32.13;19.53;;;22.30;53.40;;;;;;5085740;28;20475;-82
2021/10/19 11:31:13;;;;;;;31.07;17.87;;;22.30;53.40;;;;;;5073412;28;20448;-82
2021/10/19 11:33:51;;;;;;;29.37;17.00;;;22.30;53.40;;;;;;5073951;28;20420;-82
2021/10/19 11:36:17;;;;;;;34.30;20.37;;;22.30;53.40;;;;;;5073116;28;20463;-82
2021/10/19 11:38:48;;;;;;;36.37;18.13;;;22.30;53.40;;;;;;5068543;28;20416;-82
2021/10/19 11:41:24;;;;;;;40.30;18.83;;;22.30;53.40;;;;;;5084008;28;20424;-81
2021/10/19 11:43:53;;;;;;;34.67;17.63;;;22.30;53.40;;;;;;5071005;28;20431;-81
2021/10/19 11:46:23;;;;;;;30.97;16.87;;;22.30;53.40;;;;;;5091564;28;20442;-81
2021/10/19 11:48:51;;;;;;;29.63;16.43;;;22.30;53.40;;;;;;5074846;28;20420;-82
2021/10/19 11:51:27;;;;;;;26.30;15.77;;;22.30;53.40;;;;;;5086562;28;20428;-83
2021/10/19 11:54:03;;;;;;;25.37;17.17;;;22.30;53.40;;;;;;5072201;28;20424;-82
2021/10/19 11:56:30;;;;;;;26.87;17.47;;;22.30;53.40;;;;;;5064223;28;20459;-82
2021/10/19 11:59:04;;;;;;;25.07;17.03;;;22.30;53.50;;;;;;5089875;28;20413;-82
2021/10/19 12:01:41;;;;;;;30.87;18.03;;;22.30;53.40;;;;;;5072330;28;20452;-82
2021/10/19 12:04:13;;;;;;;29.37;17.07;;;22.30;53.40;;;;;;5089093;28;20596;-82
2021/10/19 12:06:44;;;;;;;29.70;16.67;;;22.30;53.50;;;;;;5072467;28;20431;-82
2021/10/19 12:09:17;;;;;;;28.80;17.00;;;22.30;53.50;;;;;;5072496;28;20413;-81
2021/10/19 12:11:52;;;;;;;27.93;16.33;;;22.30;53.50;;;;;;5062099;28;20433;-82
2021/10/19 12:14:27;;;;;;;34.33;18.90;;;22.30;53.50;;;;;;5051135;28;20420;-82
2021/10/19 12:16:56;;;;;;;26.03;16.13;;;22.30;53.50;;;;;;5097407;28;20467;-82
2021/10/19 12:19:30;;;;;;;33.37;16.00;;;22.30;53.50;;;;;;5075717;28;20424;-81
2021/10/19 12:22:04;;;;;;;29.30;16.70;;;22.30;53.50;;;;;;5089408;28;20385;-82
2021/10/19 12:24:36;;;;;;;32.43;16.53;;;22.30;53.50;;;;;;5063927;28;20437;-82
2021/10/19 12:27:06;;;;;;;29.20;16.70;;;22.30;53.50;;;;;;5089551;28;20401;-82
2021/10/19 12:29:36;;;;;;;33.27;16.17;;;22.30;53.50;;;;;;5071570;28;20944;-82
2021/10/19 12:32:04;;;;;;;25.73;13.97;;;22.30;53.50;;;;;;5071519;28;20401;-82
2021/10/19 12:34:31;;;;;;;26.03;15.60;;;22.30;53.60;;;;;;5089183;28;20409;-82
2021/10/19 12:37:05;;;;;;;29.53;15.20;;;22.30;53.60;;;;;;5071878;28;20427;-82
2021/10/19 12:39:44;;;;;;;24.50;15.27;;;22.30;53.60;;;;;;5089383;28;20420;-82
2021/10/19 12:42:11;;;;;;;24.20;15.60;;;22.30;53.60;;;;;;5071748;28;20408;-82
2021/10/19 12:44:38;;;;;;;21.47;13.90;;;22.30;53.60;;;;;;5070797;28;20416;-82
2021/10/19 12:47:14;;;;;;;25.70;14.97;;;22.30;53.60;;;;;;5090152;28;20420;-82
2021/10/19 12:49:52;;;;;;;29.93;13.57;;;22.30;53.70;;;;;;5070846;28;20416;-81
2021/10/19 12:52:20;;;;;;;26.80;13.80;;;22.30;53.70;;;;;;5072060;28;20436;-82
2021/10/19 12:54:46;;;;;;;23.07;13.60;;;22.20;53.60;;;;;;5059340;28;20488;-81
2021/10/19 12:57:15;;;;;;;31.37;15.00;;;22.30;53.70;;;;;;5092812;28;20396;-81
2021/10/19 12:59:42;;;;;;;24.03;12.47;;;22.20;53.70;;;;;;5073998;28;20414;-82
2021/10/19 13:02:09;;;;;;;22.43;14.43;;;22.30;53.70;;;;;;5070900;28;20511;-82
2021/10/19 13:04:36;;;;;;;22.27;14.43;;;22.20;53.60;;;;;;5074258;28;20424;-81
2021/10/19 13:07:06;;;;;;;25.10;14.10;;;22.20;53.70;;;;;;5075203;28;20447;-81
2021/10/19 13:09:34;;;;;;;19.87;14.07;;;22.20;53.70;;;;;;5058643;28;20452;-81
2021/10/19 13:12:00;;;;;;;25.40;13.03;;;22.20;53.70;;;;;;5067435;28;20409;-81
2021/10/19 13:14:30;;;;;;;19.87;12.23;;;22.20;53.70;;;;;;5089699;28;20447;-81
2021/10/19 13:16:59;;;;;;;22.17;12.67;;;22.20;53.70;;;;;;5070690;28;20427;-81
2021/10/19 13:19:26;;;;;;;25.47;13.17;;;22.20;53.70;;;;;;5070697;28;20426;-81
2021/10/19 13:21:53;;;;;;;22.03;12.33;;;22.20;53.70;;;;;;5076149;28;20412;-81
2021/10/19 13:24:18;;;;;;;19.20;11.77;;;22.20;53.70;;;;;;5093078;28;20401;-81